KCIC/CIC METAR and TAF weather

Enter ICAO airport designator
Station Type Date Time Source
KCIC METAR 2018/10/21 03:35 UTC NOAA

KCIC 210335Z AUTO 06005KT 10SM CLR 20/01 A2992 RMK AO1


Station Type Date Time Source
KCIC Decoded METAR 2018/10/21 03:35 UTC NOAA

Chico Municipal , CA, United States (KCIC) 39-48N 121-51W
Oct 20, 2018 - 11:35 PM EDT / 2018.10.21 0335 UTC
Wind: from the ENE (060 degrees) at 6 MPH (5 KT):0
Visibility: 10 mile(s):0
Sky conditions: clear
Temperature: 68 F (20 C)
Dew Point: 33 F (1 C)
Relative Humidity: 28%
Pressure (altimeter): 29.92 in. Hg (1013 hPa)
ob: KCIC 210335Z AUTO 06005KT 10SM CLR 20/01 A2992 RMK AO1
cycle: 3

Station Type Date Time Source
KCIC TAF UTC NOAA

Error!


Example: see airport list